Point Salines, Grenada

8:07 AM AST on September 21, 2014 (GMT -0400)
Point Salines International | Change Station
CLOSE
Current Station
Airport
Location: Point Salines,
Elevation: 23 ft
Nearby Weather Stations

Elev 23 ft 12.00 °N, 61.79 °W | Updated 7 minutes ago

Scattered Clouds
Scattered Clouds
84 °F
Feels Like 96 °F
N
12
Wind Variable Wind from SE

Today
High -- | Low -- °F
--% Chance of Precip.
Yesterday
High -- | Low -- °F
Precip. -- in
5:56 AM 6:03 PM
Waning Crescent, 7% visible
Pressure 29.92 in
Visibility 6.2 miles
Clouds Few 1500 ft
Scattered Clouds 1900 ft
Heat Index 96 °F
Dew Point 79 °F
Humidity 84%
Rainfall 0.00 in
Snow Depth Not available.
UV 3 out of 12
Pollen Not available.
Air Quality Not available.
Flu Activity Not available.
METAR TGPY 211200Z 13010KT 9999 FEW015CB SCT019 29/26 Q1013 NOSIG,CB-N,CB TOP SSW

More Conditions Fewer Conditions

Pressure 29.92 in
Visibility 6.2 miles
Clouds Few 1500 ft
Scattered Clouds 1900 ft
Heat Index 96 °F
Dew Point 79 °F
Humidity 84%
Rainfall 0.00 in
Snow Depth Not available.
UV 3 out of 12
Pollen Not available.
Air Quality Not available.
Flu Activity Not available.
METAR TGPY 211200Z 13010KT 9999 FEW015CB SCT019 29/26 Q1013 NOSIG,CB-N,CB TOP SSW

More Conditions Fewer Conditions

10-Day Weather Forecast

Almanac

Astronomy

Sep. 21, 2014 Rise Set
Actual Time 5:56 AM AST 6:03 PM AST
Civil Twilight 5:35 AM AST 6:25 PM AST
Nautical Twilight 5:10 AM AST 6:49 PM AST
Astronomical Twilight 4:46 AM AST 7:14 PM AST
Moon 3:46 AM AST 4:21 PM AST
Length of Visible Light 12h 49m
Length of Day
12h 07m
Tomorrow will be 0m 39s shorter.
Waning Crescent, 7% of the Moon is Illuminated
Today
Waning Crescent
Sep 24
New
Oct 1
First Quarter
Oct 8
Full
Oct 15
Last Quarter

Yesterday's Extremes

Country Highs Country Lows

Community

WunderPhotos

Upload Photos

1,755,126 photos uploaded!

Nearby

Snow Depth

Not available.

Earthquake Activity

City Distance Mag. Time & Date
No recent earthquake activity has been reported nearby.
Minimum magnitude displayed is 2.5.

Coastal Water Temperatures

Place Temperature
No Stations Reporting

Nearby Weather Stations